createdAt,value
2022-08-11T00:02:33.922Z,21.70
2022-08-11T00:05:07.298Z,21.70
2022-08-11T00:07:42.461Z,21.70
2022-08-11T00:10:13.558Z,21.70
2022-08-11T00:12:43.841Z,21.70
2022-08-11T00:15:13.666Z,21.70
2022-08-11T00:17:45.212Z,21.60
2022-08-11T00:20:17.213Z,21.60
2022-08-11T00:22:48.790Z,21.60
2022-08-11T00:25:20.310Z,21.50
2022-08-11T00:27:49.903Z,21.50
2022-08-11T00:30:18.479Z,21.50
2022-08-11T00:32:56.663Z,21.50
2022-08-11T00:35:54.680Z,21.50
2022-08-11T00:38:18.907Z,21.50
2022-08-11T00:40:56.472Z,21.40
2022-08-11T00:43:50.726Z,21.40
2022-08-11T00:46:33.430Z,21.40
2022-08-11T00:49:17.450Z,21.30
2022-08-11T00:52:05.612Z,21.30
2022-08-11T00:55:02.925Z,21.30
2022-08-11T00:58:09.489Z,21.30
2022-08-11T01:00:58.483Z,21.30
2022-08-11T01:03:41.898Z,21.30
2022-08-11T01:06:42.977Z,21.30
2022-08-11T01:09:34.910Z,21.20
2022-08-11T01:12:30.574Z,21.20
2022-08-11T01:15:26.586Z,21.20
2022-08-11T01:18:31.924Z,21.20
2022-08-11T01:21:15.583Z,21.20
2022-08-11T01:24:30.329Z,21.10
2022-08-11T01:27:23.141Z,21.10
2022-08-11T01:30:25.239Z,21.10
2022-08-11T01:33:39.004Z,21.00
2022-08-11T01:36:56.645Z,21.00
2022-08-11T01:39:59.522Z,20.90
2022-08-11T01:43:35.847Z,20.90
2022-08-11T01:46:12.210Z,20.90
2022-08-11T01:48:45.134Z,20.90
2022-08-11T01:51:25.925Z,20.90
2022-08-11T01:54:00.995Z,20.90
2022-08-11T01:59:31.044Z,20.80
2022-08-11T02:02:46.139Z,20.80
2022-08-11T02:05:29.019Z,20.80
2022-08-11T02:08:10.958Z,20.70
2022-08-11T02:11:03.036Z,20.70
2022-08-11T02:13:43.449Z,20.70
2022-08-11T02:16:22.554Z,20.70
2022-08-11T02:19:13.858Z,20.60
2022-08-11T02:22:05.577Z,20.60
2022-08-11T02:24:43.505Z,20.60
2022-08-11T02:27:23.126Z,20.60
2022-08-11T02:30:05.208Z,20.50
2022-08-11T02:32:56.251Z,20.50
2022-08-11T02:35:29.414Z,20.50
2022-08-11T02:38:12.369Z,20.50
2022-08-11T02:40:50.061Z,20.40
2022-08-11T02:43:36.179Z,20.40
2022-08-11T02:46:20.161Z,20.30
2022-08-11T02:49:18.558Z,20.30
2022-08-11T02:52:05.195Z,20.30
2022-08-11T02:54:40.512Z,20.20
2022-08-11T02:57:21.282Z,20.20
2022-08-11T02:59:54.781Z,20.10
2022-08-11T03:02:37.917Z,20.10
2022-08-11T03:05:23.615Z,20.00
2022-08-11T03:08:16.074Z,20.00
2022-08-11T03:11:09.757Z,20.00
2022-08-11T03:14:03.685Z,20.00
2022-08-11T03:16:46.370Z,20.00
2022-08-11T03:19:20.180Z,20.00
2022-08-11T03:22:02.525Z,20.00
2022-08-11T03:24:50.804Z,20.00
2022-08-11T03:27:36.905Z,19.90
2022-08-11T03:30:15.593Z,19.90
2022-08-11T03:33:09.056Z,19.90
2022-08-11T03:35:43.116Z,19.90
2022-08-11T03:38:16.427Z,19.90
2022-08-11T03:42:03.988Z,19.90
2022-08-11T03:44:39.354Z,19.90
2022-08-11T03:47:35.337Z,19.90
2022-08-11T03:50:14.632Z,19.80
2022-08-11T03:52:54.790Z,19.90
2022-08-11T03:55:39.842Z,19.90
2022-08-11T03:58:46.107Z,19.80
2022-08-11T04:01:47.438Z,19.80
2022-08-11T04:05:02.214Z,19.80
2022-08-11T04:08:27.574Z,19.80
2022-08-11T04:11:37.741Z,19.70
2022-08-11T04:14:58.978Z,19.70
2022-08-11T04:18:11.934Z,19.70
2022-08-11T04:21:04.829Z,19.70
2022-08-11T04:24:13.047Z,19.70
2022-08-11T04:27:36.896Z,19.60
2022-08-11T04:30:12.068Z,19.60
2022-08-11T04:33:13.866Z,19.60
2022-08-11T04:35:52.091Z,19.50
2022-08-11T04:38:50.315Z,19.50
2022-08-11T04:42:18.926Z,19.50
2022-08-11T04:45:22.034Z,19.50
2022-08-11T04:48:22.951Z,19.40
2022-08-11T04:51:26.005Z,19.40
2022-08-11T04:54:27.788Z,19.40
2022-08-11T04:57:22.450Z,19.30
2022-08-11T05:00:26.779Z,19.30
2022-08-11T05:03:27.391Z,19.30
2022-08-11T05:06:25.319Z,19.20
2022-08-11T05:09:30.061Z,19.20
2022-08-11T05:12:11.260Z,19.20
2022-08-11T05:15:06.666Z,19.20
2022-08-11T05:17:57.781Z,19.20
2022-08-11T05:20:45.383Z,19.10
2022-08-11T05:23:32.425Z,19.10
2022-08-11T05:26:45.981Z,19.10
2022-08-11T05:29:45.323Z,19.20
2022-08-11T05:32:35.243Z,19.10
2022-08-11T05:35:07.645Z,19.20
2022-08-11T05:37:42.541Z,19.20
2022-08-11T05:40:30.282Z,19.20
2022-08-11T05:43:22.527Z,19.30
2022-08-11T05:46:17.699Z,19.30
2022-08-11T05:49:04.937Z,19.30
2022-08-11T05:51:55.261Z,19.30
2022-08-11T05:54:45.907Z,19.40
2022-08-11T05:57:48.767Z,19.40
2022-08-11T06:00:15.431Z,19.40
2022-08-11T06:02:45.562Z,19.50
2022-08-11T06:05:14.373Z,19.50
2022-08-11T06:07:48.675Z,19.50
2022-08-11T06:10:28.406Z,19.60
2022-08-11T06:12:58.500Z,19.60
2022-08-11T06:15:29.442Z,19.60
2022-08-11T06:18:00.213Z,19.70
2022-08-11T06:20:32.872Z,19.70
2022-08-11T06:23:05.745Z,19.80
2022-08-11T06:25:36.201Z,19.80
2022-08-11T06:28:07.202Z,19.90
2022-08-11T06:30:42.737Z,19.90
2022-08-11T06:33:13.925Z,19.90
2022-08-11T06:35:52.820Z,20.00
2022-08-11T06:38:38.093Z,20.00
2022-08-11T06:41:32.288Z,20.10
2022-08-11T06:44:23.631Z,20.10
2022-08-11T06:46:56.193Z,20.10
2022-08-11T06:49:51.686Z,20.20
2022-08-11T06:52:35.640Z,20.20
2022-08-11T06:55:57.951Z,20.30
2022-08-11T06:58:16.724Z,20.30
2022-08-11T07:00:48.583Z,20.30
2022-08-11T07:03:20.884Z,20.40
2022-08-11T07:05:53.612Z,20.40
2022-08-11T07:09:02.329Z,20.50
2022-08-11T07:12:21.361Z,20.50
2022-08-11T07:15:12.545Z,20.50
2022-08-11T07:17:49.918Z,20.60
2022-08-11T07:20:43.526Z,20.60
2022-08-11T07:23:30.133Z,20.70
2022-08-11T07:26:19.133Z,20.70
2022-08-11T07:28:59.707Z,20.80
2022-08-11T07:31:42.310Z,20.80
2022-08-11T07:34:18.821Z,20.80
2022-08-11T07:36:53.575Z,20.80
2022-08-11T07:39:24.153Z,20.90
2022-08-11T07:41:58.326Z,20.90
2022-08-11T07:44:34.682Z,20.90
2022-08-11T07:47:20.408Z,20.90
2022-08-11T07:50:08.961Z,20.90
2022-08-11T07:52:40.822Z,21.00
2022-08-11T07:55:14.820Z,21.00
2022-08-11T07:58:16.424Z,21.00
2022-08-11T08:01:10.397Z,21.00
2022-08-11T08:03:58.366Z,21.00
2022-08-11T08:06:46.471Z,21.00
2022-08-11T08:09:37.634Z,21.00
2022-08-11T08:12:26.147Z,21.10
2022-08-11T08:15:14.060Z,21.10
2022-08-11T08:18:10.070Z,21.10
2022-08-11T08:20:41.722Z,21.20
2022-08-11T08:23:10.999Z,21.20
2022-08-11T08:25:46.812Z,21.20
2022-08-11T08:28:18.877Z,21.20
2022-08-11T08:30:51.207Z,21.20
2022-08-11T08:33:22.997Z,21.30
2022-08-11T08:36:11.974Z,21.30
2022-08-11T08:38:48.263Z,21.40
2022-08-11T08:41:24.213Z,21.40
2022-08-11T08:43:59.913Z,21.40
2022-08-11T08:46:46.211Z,21.40
2022-08-11T08:49:17.751Z,21.50
2022-08-11T08:51:58.707Z,21.50
2022-08-11T08:54:40.916Z,21.60
2022-08-11T08:57:12.270Z,21.60
2022-08-11T08:59:48.813Z,21.70
2022-08-11T09:02:22.034Z,21.70
2022-08-11T09:05:05.137Z,21.80
2022-08-11T09:07:39.942Z,21.80
2022-08-11T09:10:11.629Z,21.80
2022-08-11T09:12:43.731Z,21.80
2022-08-11T09:15:15.127Z,21.90
2022-08-11T09:17:51.442Z,21.90
2022-08-11T09:20:21.736Z,21.90
2022-08-11T09:26:20.540Z,22.00
2022-08-11T09:28:51.141Z,22.10
2022-08-11T09:31:21.511Z,22.10
2022-08-11T09:33:55.226Z,22.10
2022-08-11T09:36:41.623Z,22.10
2022-08-11T09:39:31.247Z,22.20
2022-08-11T09:42:03.430Z,22.20
2022-08-11T09:44:48.599Z,22.30
2022-08-11T09:47:24.537Z,22.30
2022-08-11T09:50:00.636Z,22.30
2022-08-11T09:52:33.508Z,22.40
2022-08-11T09:55:05.155Z,22.40
2022-08-11T09:57:50.983Z,22.40
2022-08-11T10:00:23.886Z,22.40
2022-08-11T10:02:54.621Z,22.50
2022-08-11T10:05:40.440Z,22.50
2022-08-11T10:08:13.152Z,22.50
2022-08-11T10:10:42.578Z,22.50
2022-08-11T10:14:30.090Z,22.60
2022-08-11T10:16:15.727Z,22.60
2022-08-11T10:18:53.076Z,22.60
2022-08-11T10:21:29.334Z,22.60
2022-08-11T10:24:17.949Z,22.60
2022-08-11T10:27:00.157Z,22.60
2022-08-11T10:29:49.820Z,22.70
2022-08-11T10:32:57.880Z,22.70
2022-08-11T10:35:28.356Z,22.70
2022-08-11T10:38:09.023Z,22.80
2022-08-11T10:41:09.811Z,22.80
2022-08-11T10:44:01.192Z,22.80
2022-08-11T10:46:46.745Z,22.90
2022-08-11T10:49:17.134Z,22.90
2022-08-11T10:52:03.530Z,22.90
2022-08-11T10:54:51.855Z,22.90
2022-08-11T10:57:38.447Z,23.00
2022-08-11T11:00:08.651Z,23.00
2022-08-11T11:02:37.398Z,23.00
2022-08-11T11:05:14.252Z,23.00
2022-08-11T11:07:56.136Z,23.10
2022-08-11T11:10:24.827Z,23.10
2022-08-11T11:13:14.015Z,23.10
2022-08-11T11:16:04.113Z,23.20
2022-08-11T11:18:36.839Z,23.20
2022-08-11T11:21:08.633Z,23.30
2022-08-11T11:23:47.557Z,23.40
2022-08-11T11:26:39.600Z,23.40
2022-08-11T11:29:30.678Z,23.50
2022-08-11T11:32:17.808Z,23.50
2022-08-11T11:35:20.917Z,23.50
2022-08-11T11:38:04.525Z,23.60
2022-08-11T11:40:34.786Z,23.60
2022-08-11T11:43:03.785Z,23.70
2022-08-11T11:45:32.755Z,23.70
2022-08-11T11:48:02.502Z,23.80
2022-08-11T11:50:34.839Z,23.80
2022-08-11T11:53:07.700Z,23.90
2022-08-11T11:55:37.215Z,23.90
2022-08-11T11:58:23.989Z,24.00
2022-08-11T12:01:11.313Z,24.10
2022-08-11T12:03:40.941Z,24.10
2022-08-11T12:06:12.233Z,24.20
2022-08-11T12:08:43.182Z,24.30
2022-08-11T12:11:31.038Z,24.40
2022-08-11T12:14:01.860Z,24.40
2022-08-11T12:16:34.371Z,24.50
2022-08-11T12:19:07.380Z,24.60
2022-08-11T12:21:37.430Z,24.70
2022-08-11T12:24:28.527Z,24.70
2022-08-11T12:27:17.841Z,24.80
2022-08-11T12:29:55.079Z,24.90
2022-08-11T12:32:26.072Z,24.90
2022-08-11T12:34:58.046Z,25.00
2022-08-11T12:37:31.378Z,25.00
2022-08-11T12:40:43.373Z,25.10
2022-08-11T12:43:37.901Z,25.10
2022-08-11T12:46:10.211Z,25.20
2022-08-11T12:49:02.538Z,25.30
2022-08-11T12:52:01.432Z,25.30
2022-08-11T12:54:59.077Z,25.30
2022-08-11T12:57:50.681Z,25.40
2022-08-11T13:00:37.984Z,25.50
2022-08-11T13:03:26.253Z,25.50
2022-08-11T13:05:57.770Z,25.60
2022-08-11T13:08:29.556Z,25.60
2022-08-11T13:11:18.298Z,25.60
2022-08-11T13:13:54.989Z,25.70
2022-08-11T13:16:29.316Z,25.70
2022-08-11T13:18:58.868Z,25.80
2022-08-11T13:21:28.746Z,25.80
2022-08-11T13:24:01.233Z,25.80
2022-08-11T13:26:43.212Z,25.90
2022-08-11T13:29:21.211Z,25.90
2022-08-11T13:31:50.283Z,26.00
2022-08-11T13:34:19.771Z,26.00
2022-08-11T13:36:52.402Z,26.00
2022-08-11T13:39:23.932Z,26.10
2022-08-11T13:41:55.256Z,26.10
2022-08-11T13:44:28.358Z,26.20
2022-08-11T13:47:01.528Z,26.20
2022-08-11T13:49:31.484Z,26.30
2022-08-11T13:52:00.882Z,26.30
2022-08-11T13:54:32.846Z,26.30
2022-08-11T13:57:08.994Z,26.40
2022-08-11T13:59:52.460Z,26.50
2022-08-11T14:02:29.308Z,26.50
2022-08-11T14:05:07.395Z,26.60
2022-08-11T14:07:39.283Z,26.60
2022-08-11T14:10:10.351Z,26.60
2022-08-11T14:13:08.298Z,26.70
2022-08-11T14:15:41.495Z,26.70
2022-08-11T14:18:15.160Z,26.70
2022-08-11T14:21:03.354Z,26.80
2022-08-11T14:23:46.156Z,26.80
2022-08-11T14:26:27.056Z,26.80
2022-08-11T14:28:59.228Z,26.90
2022-08-11T14:31:32.071Z,26.90
2022-08-11T14:34:04.277Z,26.90
2022-08-11T14:36:35.593Z,27.00
2022-08-11T14:39:08.803Z,27.00
2022-08-11T14:42:10.767Z,27.00
2022-08-11T14:45:02.050Z,27.00
2022-08-11T14:47:34.971Z,27.10
2022-08-11T14:50:10.897Z,27.10
2022-08-11T14:52:49.896Z,27.10
2022-08-11T14:55:37.242Z,27.10
2022-08-11T14:58:06.895Z,27.20
2022-08-11T15:00:36.652Z,27.20
2022-08-11T15:03:13.863Z,27.20
2022-08-11T15:05:56.305Z,27.20
2022-08-11T15:08:46.493Z,27.30
2022-08-11T15:11:34.670Z,27.30
2022-08-11T15:14:05.120Z,27.30
2022-08-11T15:16:51.868Z,27.30
2022-08-11T15:19:22.134Z,27.30
2022-08-11T15:22:08.421Z,27.30
2022-08-11T15:24:37.832Z,27.30
2022-08-11T15:27:27.777Z,27.30
2022-08-11T15:30:21.014Z,27.20
2022-08-11T15:33:24.737Z,27.20
2022-08-11T15:36:13.431Z,27.10
2022-08-11T15:38:48.734Z,27.20
2022-08-11T15:41:58.206Z,27.10
2022-08-11T15:45:04.684Z,27.10
2022-08-11T15:47:39.273Z,27.00
2022-08-11T15:50:15.917Z,27.00
2022-08-11T15:52:52.271Z,27.00
2022-08-11T15:55:22.066Z,26.90
2022-08-11T15:58:10.665Z,26.80
2022-08-11T16:01:03.831Z,26.80
2022-08-11T16:04:09.816Z,26.70
2022-08-11T16:06:47.750Z,26.70
2022-08-11T16:09:24.792Z,26.60
2022-08-11T16:11:56.124Z,26.60
2022-08-11T16:14:43.333Z,26.60
2022-08-11T16:17:17.621Z,26.50
2022-08-11T16:19:49.829Z,26.40
2022-08-11T16:22:28.625Z,26.40
2022-08-11T16:27:01.381Z,26.40
2022-08-11T16:27:50.911Z,26.40
2022-08-11T16:30:19.951Z,26.30
2022-08-11T16:32:53.147Z,26.30
2022-08-11T16:35:42.686Z,26.20
2022-08-11T16:38:30.676Z,26.20
2022-08-11T16:41:11.502Z,26.10
2022-08-11T16:44:02.009Z,26.10
2022-08-11T16:46:49.009Z,26.10
2022-08-11T16:49:20.583Z,26.10
2022-08-11T16:51:49.292Z,26.10
2022-08-11T16:54:17.872Z,26.10
2022-08-11T16:56:51.213Z,26.10
2022-08-11T16:59:23.388Z,26.10
2022-08-11T17:01:55.946Z,26.10
2022-08-11T17:04:50.031Z,26.10
2022-08-11T17:07:42.473Z,26.10
2022-08-11T17:10:51.892Z,26.10
2022-08-11T17:13:29.714Z,26.20
2022-08-11T17:16:08.463Z,26.20
2022-08-11T17:18:45.000Z,26.20
2022-08-11T17:21:17.489Z,26.20
2022-08-11T17:23:49.986Z,26.30
2022-08-11T17:26:21.104Z,26.30
2022-08-11T17:28:56.456Z,26.30
2022-08-11T17:31:43.507Z,26.30
2022-08-11T17:34:30.292Z,26.30
2022-08-11T17:37:00.253Z,26.30
2022-08-11T17:39:32.874Z,26.30
2022-08-11T17:42:20.521Z,26.30
2022-08-11T17:45:08.824Z,26.40
2022-08-11T17:47:54.897Z,26.50
2022-08-11T17:50:24.389Z,26.50
2022-08-11T17:53:11.512Z,26.60
2022-08-11T17:55:58.859Z,26.60
2022-08-11T17:58:46.022Z,26.70
2022-08-11T18:01:16.954Z,26.80
2022-08-11T18:03:56.381Z,26.80
2022-08-11T18:06:34.322Z,26.90
2022-08-11T18:09:23.725Z,26.90
2022-08-11T18:12:12.833Z,27.00
2022-08-11T18:15:00.928Z,27.00
2022-08-11T18:17:48.177Z,27.00
2022-08-11T18:20:34.174Z,27.00
2022-08-11T18:23:40.386Z,27.10
2022-08-11T18:26:30.554Z,27.10
2022-08-11T18:29:17.582Z,27.10
2022-08-11T18:32:12.202Z,27.10
2022-08-11T18:35:15.344Z,27.00
2022-08-11T18:38:06.040Z,27.00
2022-08-11T18:40:54.240Z,27.00
2022-08-11T18:43:42.834Z,27.00
2022-08-11T18:46:32.006Z,27.00
2022-08-11T18:49:21.155Z,26.90
2022-08-11T18:52:12.411Z,26.90
2022-08-11T18:55:02.115Z,26.90
2022-08-11T18:57:53.991Z,26.90
2022-08-11T19:00:41.679Z,26.90
2022-08-11T19:03:30.036Z,26.80
2022-08-11T19:06:39.724Z,26.80
2022-08-11T19:09:31.760Z,26.60
2022-08-11T19:12:19.329Z,26.50
2022-08-11T19:15:09.007Z,26.40
2022-08-11T19:17:58.010Z,26.40
2022-08-11T19:20:46.275Z,26.20
2022-08-11T19:23:35.423Z,26.20
2022-08-11T19:26:23.659Z,26.00
2022-08-11T19:30:05.005Z,25.90
2022-08-11T19:32:18.444Z,25.80
2022-08-11T19:35:05.773Z,25.70
2022-08-11T19:37:53.765Z,25.60
2022-08-11T19:40:40.254Z,25.60
2022-08-11T19:43:29.448Z,25.50
2022-08-11T19:46:16.946Z,25.40
2022-08-11T19:49:05.088Z,25.30
2022-08-11T19:51:54.098Z,25.30
2022-08-11T19:54:44.477Z,25.20
2022-08-11T19:57:35.768Z,25.10
2022-08-11T20:00:30.028Z,25.00
2022-08-11T20:03:16.747Z,25.00
2022-08-11T20:06:04.127Z,24.90
2022-08-11T20:08:55.027Z,24.90
2022-08-11T20:11:45.886Z,24.80
2022-08-11T20:14:32.947Z,24.70
2022-08-11T20:17:21.272Z,24.70
2022-08-11T20:20:08.894Z,24.60
2022-08-11T20:22:55.280Z,24.50
2022-08-11T20:25:43.449Z,24.50
2022-08-11T20:28:31.585Z,24.40
2022-08-11T20:31:17.490Z,24.40
2022-08-11T20:34:05.711Z,24.30
2022-08-11T20:36:54.818Z,24.30
2022-08-11T20:39:43.192Z,24.20
2022-08-11T20:42:31.171Z,24.20
2022-08-11T20:45:23.932Z,24.20
2022-08-11T20:48:15.251Z,24.10
2022-08-11T20:51:06.226Z,24.10
2022-08-11T20:53:54.083Z,24.00
2022-08-11T20:56:42.239Z,23.90
2022-08-11T20:59:29.782Z,23.90
2022-08-11T21:02:19.459Z,23.80
2022-08-11T21:05:06.494Z,23.80
2022-08-11T21:07:58.832Z,23.70
2022-08-11T21:10:50.579Z,23.70
2022-08-11T21:13:40.205Z,23.70
2022-08-11T21:16:27.737Z,23.60
2022-08-11T21:20:00.489Z,23.60
2022-08-11T21:22:28.374Z,23.50
2022-08-11T21:25:17.262Z,23.40
2022-08-11T21:28:05.515Z,23.40
2022-08-11T21:30:56.336Z,23.40
2022-08-11T21:33:45.186Z,23.30
2022-08-11T21:36:30.736Z,23.20
2022-08-11T21:39:16.657Z,23.20
2022-08-11T21:42:06.076Z,23.10
2022-08-11T21:44:52.832Z,23.10
2022-08-11T21:47:42.951Z,23.00
2022-08-11T21:50:30.251Z,22.90
2022-08-11T21:53:17.971Z,23.00
2022-08-11T21:56:03.958Z,22.90
2022-08-11T21:58:54.111Z,22.80
2022-08-11T22:01:41.711Z,22.80
2022-08-11T22:04:27.860Z,22.80
2022-08-11T22:07:14.011Z,22.70
2022-08-11T22:10:00.118Z,22.70
2022-08-11T22:12:46.226Z,22.70
2022-08-11T22:15:34.448Z,22.60
2022-08-11T22:18:21.085Z,22.60
2022-08-11T22:21:07.042Z,22.60
2022-08-11T22:23:57.669Z,22.60
2022-08-11T22:26:47.329Z,22.50
2022-08-11T22:29:38.182Z,22.50
2022-08-11T22:32:39.933Z,22.50
2022-08-11T22:35:29.735Z,22.50
2022-08-11T22:38:16.925Z,22.50
2022-08-11T22:41:03.168Z,22.40
2022-08-11T22:43:48.701Z,22.50
2022-08-11T22:46:35.226Z,22.40
2022-08-11T22:49:23.360Z,22.40
2022-08-11T22:52:09.550Z,22.40
2022-08-11T22:54:56.120Z,22.40
2022-08-11T22:58:00.144Z,22.40
2022-08-11T23:00:47.720Z,22.30
2022-08-11T23:03:37.383Z,22.30
2022-08-11T23:06:26.602Z,22.20
2022-08-11T23:09:13.762Z,22.20
2022-08-11T23:12:07.156Z,22.20
2022-08-11T23:14:57.165Z,22.20
2022-08-11T23:17:43.641Z,22.20
2022-08-11T23:20:35.015Z,22.10
2022-08-11T23:23:34.979Z,22.00
2022-08-11T23:26:22.121Z,22.00
2022-08-11T23:29:08.109Z,22.00
2022-08-11T23:31:56.051Z,22.00
2022-08-11T23:35:04.275Z,21.90
2022-08-11T23:37:53.844Z,21.90
2022-08-11T23:40:41.273Z,21.90
2022-08-11T23:43:27.324Z,21.90
2022-08-11T23:46:13.362Z,21.90
2022-08-11T23:49:00.384Z,21.80
2022-08-11T23:51:47.823Z,21.80
2022-08-11T23:54:37.368Z,21.80
2022-08-11T23:57:25.423Z,21.80
